createdAt,value
2023-11-07T00:00:41.915Z,6.28
2023-11-07T00:01:41.851Z,6.28
2023-11-07T00:02:41.948Z,6.29
2023-11-07T00:03:41.981Z,6.26
2023-11-07T00:04:41.816Z,6.30
2023-11-07T00:05:41.946Z,6.29
2023-11-07T00:06:41.990Z,6.30
2023-11-07T00:07:41.879Z,6.32
2023-11-07T00:08:41.875Z,6.32
2023-11-07T00:09:41.907Z,6.32
2023-11-07T00:10:41.768Z,6.29
2023-11-07T00:11:41.787Z,6.26
2023-11-07T00:12:41.749Z,6.28
2023-11-07T00:13:41.733Z,6.28
2023-11-07T00:14:41.756Z,6.28
2023-11-07T00:15:41.713Z,6.28
2023-11-07T00:16:41.737Z,6.26
2023-11-07T00:17:41.808Z,6.25
2023-11-07T00:18:42.016Z,6.25
2023-11-07T00:19:41.680Z,6.22
2023-11-07T00:20:41.681Z,6.18
2023-11-07T00:21:41.649Z,6.18
2023-11-07T00:22:41.633Z,6.13
2023-11-07T00:23:47.880Z,6.16
2023-11-07T00:24:41.621Z,6.19
2023-11-07T00:25:41.630Z,6.16
2023-11-07T00:26:41.621Z,6.18
2023-11-07T00:27:41.608Z,6.18
2023-11-07T00:28:41.570Z,6.16
2023-11-07T00:29:41.605Z,6.16
2023-11-07T00:30:41.571Z,6.14
2023-11-07T00:31:41.545Z,6.13
2023-11-07T00:32:41.608Z,6.11
2023-11-07T00:33:41.678Z,6.11
2023-11-07T00:34:41.530Z,6.11
2023-11-07T00:35:41.523Z,6.09
2023-11-07T00:36:41.485Z,6.07
2023-11-07T00:37:41.477Z,6.06
2023-11-07T00:38:41.494Z,6.06
2023-11-07T00:39:41.506Z,6.07
2023-11-07T00:40:41.466Z,6.06
2023-11-07T00:41:41.463Z,6.07
2023-11-07T00:42:41.429Z,6.07
2023-11-07T00:43:41.390Z,6.10
2023-11-07T00:44:41.421Z,6.09
2023-11-07T00:45:41.348Z,6.09
2023-11-07T00:46:41.331Z,6.06
2023-11-07T00:47:41.435Z,6.09
2023-11-07T00:48:41.478Z,6.04
2023-11-07T00:49:41.359Z,6.06
2023-11-07T00:50:41.366Z,6.06
2023-11-07T00:51:41.341Z,6.04
2023-11-07T00:52:41.337Z,6.04
2023-11-07T00:53:41.399Z,6.00
2023-11-07T00:54:41.313Z,5.98
2023-11-07T00:55:41.305Z,5.96
2023-11-07T00:56:41.299Z,5.95
2023-11-07T00:57:41.310Z,5.91
2023-11-07T00:58:41.295Z,5.88
2023-11-07T00:59:41.288Z,5.85
2023-11-07T01:00:41.260Z,5.86
2023-11-07T01:01:41.234Z,5.85
2023-11-07T01:02:42.867Z,5.83
2023-11-07T01:03:41.349Z,5.85
2023-11-07T01:04:41.259Z,5.83
2023-11-07T01:05:41.340Z,5.78
2023-11-07T01:06:41.304Z,5.78
2023-11-07T01:07:41.185Z,5.77
2023-11-07T01:08:41.181Z,5.75
2023-11-07T01:09:41.171Z,5.73
2023-11-07T01:10:41.139Z,5.74
2023-11-07T01:11:41.190Z,5.74
2023-11-07T01:12:41.152Z,5.77
2023-11-07T01:13:41.185Z,5.78
2023-11-07T01:14:41.136Z,5.78
2023-11-07T01:15:41.086Z,5.81
2023-11-07T01:16:41.113Z,5.83
2023-11-07T01:17:41.245Z,5.83
2023-11-07T01:18:41.178Z,5.85
2023-11-07T01:19:41.079Z,5.82
2023-11-07T01:20:41.100Z,5.83
2023-11-07T01:21:41.042Z,5.86
2023-11-07T01:22:41.025Z,5.86
2023-11-07T01:23:41.044Z,5.83
2023-11-07T01:24:41.006Z,5.82
2023-11-07T01:25:41.010Z,5.77
2023-11-07T01:26:41.037Z,5.75
2023-11-07T01:27:40.986Z,5.75
2023-11-07T01:28:40.993Z,5.74
2023-11-07T01:29:40.993Z,5.73
2023-11-07T01:30:40.955Z,5.71
2023-11-07T01:31:40.928Z,5.70
2023-11-07T01:32:41.003Z,5.66
2023-11-07T01:33:41.033Z,5.66
2023-11-07T01:34:40.910Z,5.63
2023-11-07T01:35:40.918Z,5.59
2023-11-07T01:36:40.876Z,5.57
2023-11-07T01:37:40.861Z,5.56
2023-11-07T01:38:40.884Z,5.55
2023-11-07T01:39:40.877Z,5.53
2023-11-07T01:40:40.845Z,5.52
2023-11-07T01:41:40.889Z,5.50
2023-11-07T01:42:40.812Z,5.48
2023-11-07T01:43:40.862Z,5.48
2023-11-07T01:44:40.830Z,5.48
2023-11-07T01:45:40.790Z,5.48
2023-11-07T01:46:40.771Z,5.52
2023-11-07T01:47:40.819Z,5.48
2023-11-07T01:48:40.810Z,5.45
2023-11-07T01:49:40.750Z,5.45
2023-11-07T01:50:40.751Z,5.48
2023-11-07T01:51:40.736Z,5.46
2023-11-07T01:52:40.796Z,5.43
2023-11-07T01:53:40.737Z,5.43
2023-11-07T01:54:40.710Z,5.41
2023-11-07T01:55:40.685Z,5.38
2023-11-07T01:56:40.671Z,5.38
2023-11-07T01:57:40.663Z,5.37
2023-11-07T01:58:40.679Z,5.32
2023-11-07T01:59:40.672Z,5.28
2023-11-07T02:00:40.644Z,5.30
2023-11-07T02:01:40.637Z,5.25
2023-11-07T02:02:40.712Z,5.27
2023-11-07T02:03:40.720Z,5.23
2023-11-07T02:04:40.628Z,5.23
2023-11-07T02:05:40.634Z,5.22
2023-11-07T02:06:40.559Z,5.27
2023-11-07T02:07:40.604Z,5.30
2023-11-07T02:08:40.568Z,5.32
2023-11-07T02:09:40.543Z,5.32
2023-11-07T02:10:40.523Z,5.31
2023-11-07T02:11:40.555Z,5.34
2023-11-07T02:12:40.522Z,5.35
2023-11-07T02:13:40.521Z,5.35
2023-11-07T02:14:40.574Z,5.34
2023-11-07T02:15:40.506Z,5.28
2023-11-07T02:16:40.464Z,5.27
2023-11-07T02:17:40.499Z,5.22
2023-11-07T02:18:40.529Z,5.19
2023-11-07T02:19:40.441Z,5.17
2023-11-07T02:20:40.439Z,5.14
2023-11-07T02:21:40.435Z,5.13
2023-11-07T02:22:40.425Z,5.14
2023-11-07T02:23:40.467Z,5.13
2023-11-07T02:24:40.493Z,5.09
2023-11-07T02:25:40.393Z,5.07
2023-11-07T02:26:40.443Z,5.10
2023-11-07T02:27:40.364Z,5.10
2023-11-07T02:28:40.358Z,5.09
2023-11-07T02:29:40.355Z,5.09
2023-11-07T02:30:40.351Z,5.09
2023-11-07T02:31:40.339Z,5.07
2023-11-07T02:32:40.416Z,5.09
2023-11-07T02:33:40.432Z,5.09
2023-11-07T02:34:40.322Z,5.12
2023-11-07T02:35:40.288Z,5.13
2023-11-07T02:36:40.288Z,5.12
2023-11-07T02:37:40.289Z,5.13
2023-11-07T02:38:40.247Z,5.14
2023-11-07T02:39:40.236Z,5.13
2023-11-07T02:40:40.267Z,5.12
2023-11-07T02:41:40.224Z,5.14
2023-11-07T02:42:40.196Z,5.16
2023-11-07T02:43:40.194Z,5.16
2023-11-07T02:44:40.208Z,5.16
2023-11-07T02:45:40.192Z,5.16
2023-11-07T02:46:40.171Z,5.19
2023-11-07T02:47:42.931Z,5.20
2023-11-07T02:48:40.198Z,5.25
2023-11-07T02:49:40.162Z,5.31
2023-11-07T02:50:40.143Z,5.32
2023-11-07T02:51:40.186Z,5.35
2023-11-07T02:52:40.086Z,5.40
2023-11-07T02:53:40.157Z,5.43
2023-11-07T02:54:40.110Z,5.46
2023-11-07T02:55:40.110Z,5.50
2023-11-07T02:56:40.070Z,5.57
2023-11-07T02:57:40.056Z,5.57
2023-11-07T02:58:40.039Z,5.63
2023-11-07T02:59:40.057Z,5.66
2023-11-07T03:00:40.018Z,5.68
2023-11-07T03:01:40.010Z,5.68
2023-11-07T03:02:40.041Z,5.71
2023-11-07T03:03:40.157Z,5.73
2023-11-07T03:04:39.993Z,5.73
2023-11-07T03:05:40.337Z,5.74
2023-11-07T03:06:39.984Z,5.81
2023-11-07T03:07:39.946Z,5.82
2023-11-07T03:08:39.989Z,5.83
2023-11-07T03:09:39.941Z,5.82
2023-11-07T03:10:39.936Z,5.85
2023-11-07T03:11:39.917Z,5.82
2023-11-07T03:12:39.889Z,5.83
2023-11-07T03:13:39.914Z,5.85
2023-11-07T03:14:39.896Z,5.85
2023-11-07T03:15:39.875Z,5.83
2023-11-07T03:16:39.851Z,5.82
2023-11-07T03:17:39.886Z,5.78
2023-11-07T03:18:39.979Z,5.78
2023-11-07T03:19:39.826Z,5.82
2023-11-07T03:20:39.811Z,5.81
2023-11-07T03:21:39.840Z,5.83
2023-11-07T03:22:39.817Z,5.85
2023-11-07T03:23:39.827Z,5.86
2023-11-07T03:24:39.764Z,5.86
2023-11-07T03:25:39.766Z,5.86
2023-11-07T03:26:39.858Z,5.83
2023-11-07T03:27:39.751Z,5.83
2023-11-07T03:28:39.723Z,5.78
2023-11-07T03:29:39.755Z,5.78
2023-11-07T03:30:39.708Z,5.78
2023-11-07T03:31:39.711Z,5.81
2023-11-07T03:32:39.769Z,5.82
2023-11-07T03:33:39.798Z,5.82
2023-11-07T03:34:39.685Z,5.85
2023-11-07T03:35:39.766Z,5.83
2023-11-07T03:36:39.675Z,5.81
2023-11-07T03:37:39.632Z,5.78
2023-11-07T03:38:39.649Z,5.77
2023-11-07T03:39:39.705Z,5.77
2023-11-07T03:40:39.596Z,5.75
2023-11-07T03:41:39.656Z,5.74
2023-11-07T03:42:39.576Z,5.75
2023-11-07T03:43:39.579Z,5.74
2023-11-07T03:44:39.571Z,5.71
2023-11-07T03:45:39.577Z,5.74
2023-11-07T03:46:39.565Z,5.74
2023-11-07T03:47:39.604Z,5.75
2023-11-07T03:48:39.617Z,5.71
2023-11-07T03:49:39.524Z,5.71
2023-11-07T03:50:39.543Z,5.71
2023-11-07T03:51:39.491Z,5.73
2023-11-07T03:52:39.476Z,5.73
2023-11-07T03:53:39.507Z,5.71
2023-11-07T03:54:39.459Z,5.74
2023-11-07T03:55:39.484Z,5.74
2023-11-07T03:56:39.457Z,5.71
2023-11-07T03:57:39.432Z,5.71
2023-11-07T03:58:39.446Z,5.74
2023-11-07T03:59:39.466Z,5.71
2023-11-07T04:00:39.421Z,5.71
2023-11-07T04:01:39.412Z,5.73
2023-11-07T04:02:39.427Z,5.71
2023-11-07T04:03:39.497Z,5.71
2023-11-07T04:04:39.374Z,5.67
2023-11-07T04:05:39.417Z,5.68
2023-11-07T04:06:39.389Z,5.67
2023-11-07T04:07:39.343Z,5.66
2023-11-07T04:08:39.352Z,5.63
2023-11-07T04:09:39.324Z,5.63
2023-11-07T04:10:39.295Z,5.60
2023-11-07T04:11:39.313Z,5.60
2023-11-07T04:12:39.297Z,5.60
2023-11-07T04:13:39.285Z,5.63
2023-11-07T04:14:39.304Z,5.64
2023-11-07T04:15:39.246Z,5.66
2023-11-07T04:16:39.232Z,5.66
2023-11-07T04:17:39.418Z,5.66
2023-11-07T04:18:39.297Z,5.67
2023-11-07T04:19:39.206Z,5.66
2023-11-07T04:20:39.193Z,5.66
2023-11-07T04:21:39.229Z,5.63
2023-11-07T04:22:39.186Z,5.64
2023-11-07T04:23:39.252Z,5.64
2023-11-07T04:24:39.156Z,5.63
2023-11-07T04:25:39.152Z,5.63
2023-11-07T04:26:39.153Z,5.59
2023-11-07T04:27:39.134Z,5.60
2023-11-07T04:28:39.208Z,5.59
2023-11-07T04:29:39.154Z,5.57
2023-11-07T04:30:39.133Z,5.57
2023-11-07T04:31:39.088Z,5.56
2023-11-07T04:32:39.128Z,5.56
2023-11-07T04:33:39.111Z,5.57
2023-11-07T04:34:39.033Z,5.56
2023-11-07T04:35:39.120Z,5.55
2023-11-07T04:36:39.063Z,5.52
2023-11-07T04:37:39.024Z,5.52
2023-11-07T04:38:39.110Z,5.50
2023-11-07T04:39:39.007Z,5.49
2023-11-07T04:40:38.994Z,5.49
2023-11-07T04:41:39.013Z,5.48
2023-11-07T04:42:38.985Z,5.50
2023-11-07T04:43:38.956Z,5.49
2023-11-07T04:44:39.012Z,5.48
2023-11-07T04:45:38.969Z,5.45
2023-11-07T04:46:38.944Z,5.48
2023-11-07T04:47:39.027Z,5.48
2023-11-07T04:48:38.953Z,5.49
2023-11-07T04:49:38.999Z,5.49
2023-11-07T04:50:39.000Z,5.49
2023-11-07T04:51:38.879Z,5.49
2023-11-07T04:52:38.865Z,5.49
2023-11-07T04:53:39.030Z,5.49
2023-11-07T04:54:38.842Z,5.48
2023-11-07T04:55:38.840Z,5.48
2023-11-07T04:56:38.842Z,5.50
2023-11-07T04:57:38.812Z,5.50
2023-11-07T04:58:56.423Z,5.53
2023-11-07T04:59:38.841Z,5.55
2023-11-07T05:00:38.832Z,5.52
2023-11-07T05:01:38.781Z,5.53
2023-11-07T05:02:38.920Z,5.52
2023-11-07T05:03:42.969Z,5.52
2023-11-07T05:04:38.809Z,5.50
2023-11-07T05:05:38.813Z,5.50
2023-11-07T05:06:38.825Z,5.50
2023-11-07T05:07:38.731Z,5.52
2023-11-07T05:08:38.735Z,5.52
2023-11-07T05:09:38.710Z,5.50
2023-11-07T05:10:38.703Z,5.53
2023-11-07T05:11:38.724Z,5.57
2023-11-07T05:12:38.657Z,5.63
2023-11-07T05:13:38.654Z,5.66
2023-11-07T05:14:38.705Z,5.67
2023-11-07T05:15:38.627Z,5.68
2023-11-07T05:16:38.622Z,5.70
2023-11-07T05:17:38.694Z,5.70
2023-11-07T05:18:38.830Z,5.70
2023-11-07T05:19:38.652Z,5.68
2023-11-07T05:20:38.666Z,5.67
2023-11-07T05:21:38.590Z,5.68
2023-11-07T05:22:38.561Z,5.67
2023-11-07T05:23:38.629Z,5.71
2023-11-07T05:24:38.557Z,5.74
2023-11-07T05:25:38.533Z,5.75
2023-11-07T05:26:39.188Z,5.77
2023-11-07T05:27:38.506Z,5.81
2023-11-07T05:28:38.555Z,5.81
2023-11-07T05:29:38.520Z,5.81
2023-11-07T05:30:38.490Z,5.82
2023-11-07T05:31:38.477Z,5.82
2023-11-07T05:32:38.649Z,5.85
2023-11-07T05:33:38.675Z,5.83
2023-11-07T05:34:38.442Z,5.85
2023-11-07T05:35:38.470Z,5.85
2023-11-07T05:36:38.425Z,5.81
2023-11-07T05:37:38.444Z,5.81
2023-11-07T05:38:38.494Z,5.81
2023-11-07T05:39:38.404Z,5.77
2023-11-07T05:40:38.351Z,5.78
2023-11-07T05:41:38.431Z,5.77
2023-11-07T05:42:38.445Z,5.78
2023-11-07T05:43:38.293Z,5.78
2023-11-07T05:44:38.409Z,5.75
2023-11-07T05:45:38.317Z,5.78
2023-11-07T05:46:38.395Z,5.77
2023-11-07T05:47:38.496Z,5.74
2023-11-07T05:48:38.376Z,5.73
2023-11-07T05:49:38.234Z,5.70
2023-11-07T05:50:38.240Z,5.68
2023-11-07T05:51:38.234Z,5.68
2023-11-07T05:52:38.212Z,5.71
2023-11-07T05:53:38.208Z,5.70
2023-11-07T05:54:38.182Z,5.70
2023-11-07T05:55:38.159Z,5.70
2023-11-07T05:56:38.384Z,5.71
2023-11-07T05:57:38.143Z,5.73
2023-11-07T05:58:38.132Z,5.70
2023-11-07T05:59:38.135Z,5.70
2023-11-07T06:00:38.123Z,5.68
2023-11-07T06:01:38.111Z,5.67
2023-11-07T06:02:38.128Z,5.66
2023-11-07T06:03:38.200Z,5.66
2023-11-07T06:04:38.076Z,5.66
2023-11-07T06:05:38.190Z,5.67
2023-11-07T06:06:38.104Z,5.67
2023-11-07T06:07:38.027Z,5.67
2023-11-07T06:08:38.064Z,5.66
2023-11-07T06:09:38.017Z,5.64
2023-11-07T06:10:38.013Z,5.63
2023-11-07T06:11:38.025Z,5.63
2023-11-07T06:12:37.978Z,5.60
2023-11-07T06:13:37.964Z,5.63
2023-11-07T06:14:38.001Z,5.63
2023-11-07T06:15:37.961Z,5.63
2023-11-07T06:16:37.940Z,5.63
2023-11-07T06:17:38.015Z,5.66
2023-11-07T06:18:38.041Z,5.64
2023-11-07T06:19:37.944Z,5.63
2023-11-07T06:20:37.950Z,5.59
2023-11-07T06:21:37.920Z,5.59
2023-11-07T06:22:37.918Z,5.60
2023-11-07T06:23:37.924Z,5.57
2023-11-07T06:24:37.964Z,5.55
2023-11-07T06:25:37.839Z,5.55
2023-11-07T06:26:37.868Z,5.55
2023-11-07T06:27:37.815Z,5.52
2023-11-07T06:28:37.853Z,5.49
2023-11-07T06:29:37.827Z,5.49
2023-11-07T06:30:37.790Z,5.46
2023-11-07T06:31:37.783Z,5.43
2023-11-07T06:32:37.828Z,5.40
2023-11-07T06:33:37.939Z,5.40
2023-11-07T06:34:37.764Z,5.38
2023-11-07T06:35:37.753Z,5.41
2023-11-07T06:36:37.735Z,5.41
2023-11-07T06:37:37.744Z,5.40
2023-11-07T06:38:37.757Z,5.41
2023-11-07T06:39:37.700Z,5.45
2023-11-07T06:40:37.738Z,5.43
2023-11-07T06:41:37.750Z,5.46
2023-11-07T06:42:37.814Z,5.49
2023-11-07T06:43:37.661Z,5.52
2023-11-07T06:44:37.673Z,5.55
2023-11-07T06:45:37.643Z,5.59
2023-11-07T06:46:37.675Z,5.64
2023-11-07T06:47:37.727Z,5.68
2023-11-07T06:48:37.734Z,5.70
2023-11-07T06:49:37.606Z,5.73
2023-11-07T06:50:37.626Z,5.73
2023-11-07T06:51:37.602Z,5.74
2023-11-07T06:52:37.581Z,5.78
2023-11-07T06:53:37.604Z,5.81
2023-11-07T06:54:37.636Z,5.83
2023-11-07T06:55:37.533Z,5.85
2023-11-07T06:56:37.590Z,5.89
2023-11-07T06:57:37.542Z,5.89
2023-11-07T06:58:37.502Z,5.91
2023-11-07T06:59:37.551Z,5.92
2023-11-07T07:00:37.503Z,5.93
2023-11-07T07:01:37.503Z,5.93
2023-11-07T07:02:37.547Z,5.91
2023-11-07T07:03:37.612Z,5.92
2023-11-07T07:04:37.447Z,5.98
2023-11-07T07:05:37.468Z,6.00
2023-11-07T07:06:37.637Z,6.04
2023-11-07T07:07:37.416Z,6.07
2023-11-07T07:08:37.495Z,6.06
2023-11-07T07:09:37.396Z,6.11
2023-11-07T07:10:37.405Z,6.13
2023-11-07T07:11:37.384Z,6.18
2023-11-07T07:12:37.363Z,6.19
2023-11-07T07:13:37.389Z,6.21
2023-11-07T07:14:37.359Z,6.22
2023-11-07T07:15:37.349Z,6.22
2023-11-07T07:16:37.328Z,6.19
2023-11-07T07:17:37.327Z,6.22
2023-11-07T07:18:37.370Z,6.22
2023-11-07T07:19:37.302Z,6.22
2023-11-07T07:20:37.299Z,6.18
2023-11-07T07:21:37.266Z,6.16
2023-11-07T07:22:37.270Z,6.14
2023-11-07T07:23:37.370Z,6.13
2023-11-07T07:24:37.256Z,6.14
2023-11-07T07:25:37.228Z,6.11
2023-11-07T07:26:37.251Z,6.13
2023-11-07T07:27:37.210Z,6.16
2023-11-07T07:28:37.232Z,6.19
2023-11-07T07:29:37.207Z,6.19
2023-11-07T07:30:37.185Z,6.22
2023-11-07T07:31:37.158Z,6.25
2023-11-07T07:32:37.234Z,6.29
2023-11-07T07:33:37.312Z,6.38
2023-11-07T07:34:37.171Z,6.44
2023-11-07T07:35:37.128Z,6.53
2023-11-07T07:36:37.116Z,6.56
2023-11-07T07:37:37.118Z,6.61
2023-11-07T07:38:37.137Z,6.66
2023-11-07T07:39:38.747Z,6.73
2023-11-07T07:40:37.078Z,6.80
2023-11-07T07:41:37.062Z,6.89
2023-11-07T07:42:37.074Z,6.94
2023-11-07T07:43:37.069Z,7.02
2023-11-07T07:44:37.031Z,7.09
2023-11-07T07:45:37.017Z,7.19
2023-11-07T07:46:37.048Z,7.26
2023-11-07T07:47:37.045Z,7.34
2023-11-07T07:48:37.055Z,7.41
2023-11-07T07:49:37.027Z,7.45
2023-11-07T07:50:36.979Z,7.50
2023-11-07T07:51:36.964Z,7.56
2023-11-07T07:52:36.964Z,7.67
2023-11-07T07:53:36.948Z,7.74
2023-11-07T07:54:56.913Z,7.79
2023-11-07T07:55:39.007Z,7.89
2023-11-07T07:56:36.944Z,7.94
2023-11-07T07:57:36.907Z,7.96
2023-11-07T07:58:36.891Z,7.97
2023-11-07T07:59:36.885Z,7.96
2023-11-07T08:00:36.874Z,7.97
2023-11-07T08:01:36.884Z,7.99
2023-11-07T08:02:36.893Z,7.96
2023-11-07T08:03:36.953Z,7.99
2023-11-07T08:04:36.827Z,7.97
2023-11-07T08:05:36.818Z,7.89
2023-11-07T08:06:36.835Z,7.77
2023-11-07T08:07:36.804Z,7.72
2023-11-07T08:08:36.792Z,7.75
2023-11-07T08:09:36.773Z,7.74
2023-11-07T08:10:36.820Z,7.75
2023-11-07T08:11:36.779Z,7.74
2023-11-07T08:12:36.759Z,7.75
2023-11-07T08:13:36.738Z,7.72
2023-11-07T08:14:36.727Z,7.72
2023-11-07T08:15:37.329Z,7.72
2023-11-07T08:16:36.709Z,7.75
2023-11-07T08:17:36.910Z,7.75
2023-11-07T08:18:36.812Z,7.74
2023-11-07T08:19:36.846Z,7.74
2023-11-07T08:20:36.677Z,7.75
2023-11-07T08:21:36.665Z,7.77
2023-11-07T08:22:36.651Z,7.79
2023-11-07T08:23:36.658Z,7.85
2023-11-07T08:24:36.671Z,7.82
2023-11-07T08:25:36.638Z,7.87
2023-11-07T08:26:36.607Z,7.85
2023-11-07T08:27:36.613Z,7.90
2023-11-07T08:28:36.650Z,7.93
2023-11-07T08:29:36.672Z,8.04
2023-11-07T08:30:36.653Z,8.11
2023-11-07T08:31:36.607Z,8.18
2023-11-07T08:32:36.581Z,8.22
2023-11-07T08:33:36.652Z,8.32
2023-11-07T08:34:36.627Z,8.35
2023-11-07T08:35:36.516Z,8.37
2023-11-07T08:36:36.522Z,8.45
2023-11-07T08:37:36.501Z,8.47
2023-11-07T08:38:36.512Z,8.50
2023-11-07T08:39:36.522Z,8.50
2023-11-07T08:40:36.858Z,8.53
2023-11-07T08:41:36.454Z,8.53
2023-11-07T08:42:36.455Z,8.54
2023-11-07T08:43:36.453Z,8.58
2023-11-07T08:44:36.439Z,8.63
2023-11-07T08:45:36.464Z,8.71
2023-11-07T08:46:36.399Z,8.69
2023-11-07T08:47:36.455Z,8.73
2023-11-07T08:48:36.458Z,8.75
2023-11-07T08:49:36.438Z,8.79
2023-11-07T08:50:36.364Z,8.79
2023-11-07T08:51:36.364Z,8.79
2023-11-07T08:52:36.348Z,8.79
2023-11-07T08:53:36.384Z,8.79
2023-11-07T08:54:36.322Z,8.79
2023-11-07T08:55:36.311Z,8.78
2023-11-07T08:56:36.309Z,8.73
2023-11-07T08:57:36.321Z,8.72
2023-11-07T08:58:36.278Z,8.69
2023-11-07T08:59:36.273Z,8.68
2023-11-07T09:00:36.273Z,8.72
2023-11-07T09:01:36.300Z,8.73
2023-11-07T09:02:36.309Z,8.75
2023-11-07T09:03:36.288Z,8.78
2023-11-07T09:04:36.227Z,8.86
2023-11-07T09:05:36.227Z,8.91
2023-11-07T09:06:37.703Z,8.97
2023-11-07T09:07:36.360Z,9.01
2023-11-07T09:08:36.191Z,9.04
2023-11-07T09:09:36.175Z,9.10
2023-11-07T09:10:36.161Z,9.09
2023-11-07T09:11:36.209Z,9.16
2023-11-07T09:12:36.711Z,9.13
2023-11-07T09:13:36.170Z,9.20
2023-11-07T09:14:36.124Z,9.21
2023-11-07T09:15:36.143Z,9.25
2023-11-07T09:16:36.128Z,9.23
2023-11-07T09:17:36.699Z,9.28
2023-11-07T09:18:36.182Z,9.38
2023-11-07T09:19:36.141Z,9.40
2023-11-07T09:20:36.150Z,9.46
2023-11-07T09:21:36.114Z,9.50
2023-11-07T09:22:36.054Z,9.60
2023-11-07T09:23:36.043Z,9.66
2023-11-07T09:24:36.047Z,9.60
2023-11-07T09:25:36.033Z,9.61
2023-11-07T09:26:36.009Z,9.67
2023-11-07T09:27:36.018Z,9.75
2023-11-07T09:28:35.987Z,9.78
2023-11-07T09:29:35.989Z,9.82
2023-11-07T09:30:36.017Z,9.88
2023-11-07T09:31:35.954Z,9.89
2023-11-07T09:32:36.021Z,9.86
2023-11-07T09:33:36.085Z,9.81
2023-11-07T09:34:36.011Z,9.82
2023-11-07T09:35:35.918Z,9.86
2023-11-07T09:36:35.918Z,9.88
2023-11-07T09:37:35.929Z,9.94
2023-11-07T09:38:46.946Z,10.01
2023-11-07T09:39:35.960Z,10.09
2023-11-07T09:40:35.980Z,10.14
2023-11-07T09:41:35.872Z,10.14
2023-11-07T09:42:35.914Z,10.14
2023-11-07T09:43:35.873Z,10.10
2023-11-07T09:44:35.855Z,9.99
2023-11-07T09:45:35.836Z,9.94
2023-11-07T09:46:35.801Z,9.94
2023-11-07T09:47:35.806Z,9.94
2023-11-07T09:48:35.905Z,9.97
2023-11-07T09:49:35.784Z,9.97
2023-11-07T09:50:35.783Z,9.96
2023-11-07T09:51:35.771Z,10.01
2023-11-07T09:52:35.770Z,9.99
2023-11-07T09:53:35.745Z,9.96
2023-11-07T09:54:35.763Z,9.99
2023-11-07T09:55:36.196Z,9.96
2023-11-07T09:56:35.704Z,9.96
2023-11-07T09:57:35.703Z,10.00
2023-11-07T09:58:35.707Z,10.14
2023-11-07T09:59:35.688Z,10.22
2023-11-07T10:00:35.673Z,10.34
2023-11-07T10:01:35.670Z,10.40
2023-11-07T10:02:35.711Z,10.44
2023-11-07T10:03:35.779Z,10.39
2023-11-07T10:04:35.849Z,10.39
2023-11-07T10:05:35.612Z,10.39
2023-11-07T10:06:35.661Z,10.34
2023-11-07T10:07:35.607Z,10.33
2023-11-07T10:08:35.585Z,10.30
2023-11-07T10:09:35.609Z,10.36
2023-11-07T10:10:35.991Z,10.33
2023-11-07T10:11:35.569Z,10.34
2023-11-07T10:12:35.571Z,10.30
2023-11-07T10:13:35.555Z,10.34
2023-11-07T10:14:35.592Z,10.37
2023-11-07T10:15:35.522Z,10.42
2023-11-07T10:16:35.525Z,10.51
2023-11-07T10:17:35.531Z,10.53
2023-11-07T10:18:35.543Z,10.62
2023-11-07T10:19:35.604Z,10.71
2023-11-07T10:20:35.453Z,10.78
2023-11-07T10:21:35.461Z,10.81
2023-11-07T10:22:35.532Z,10.76
2023-11-07T10:23:35.423Z,10.74
2023-11-07T10:24:35.425Z,10.70
2023-11-07T10:25:35.454Z,10.55
2023-11-07T10:26:35.416Z,10.59
2023-11-07T10:27:35.421Z,10.70
2023-11-07T10:28:35.448Z,10.76
2023-11-07T10:29:40.513Z,10.63
2023-11-07T10:30:35.457Z,10.46
2023-11-07T10:31:35.378Z,10.34
2023-11-07T10:32:35.373Z,10.34
2023-11-07T10:33:35.448Z,10.33
2023-11-07T10:34:35.350Z,10.39
2023-11-07T10:35:35.308Z,10.40
2023-11-07T10:36:35.281Z,10.34
2023-11-07T10:37:35.327Z,10.26
2023-11-07T10:38:35.273Z,10.26
2023-11-07T10:39:35.346Z,10.21
2023-11-07T10:40:35.752Z,10.22
2023-11-07T10:41:35.231Z,10.28
2023-11-07T10:42:35.220Z,10.36
2023-11-07T10:43:35.452Z,10.43
2023-11-07T10:44:35.276Z,10.52
2023-11-07T10:45:35.205Z,10.53
2023-11-07T10:46:35.228Z,10.56
2023-11-07T10:47:35.197Z,10.60
2023-11-07T10:48:35.204Z,10.59
2023-11-07T10:49:35.252Z,10.56
2023-11-07T10:50:35.137Z,10.60
2023-11-07T10:51:35.131Z,10.56
2023-11-07T10:52:35.157Z,10.55
2023-11-07T10:53:35.122Z,10.51
2023-11-07T10:54:35.103Z,10.47
2023-11-07T10:55:35.092Z,10.47
2023-11-07T10:56:35.066Z,10.43
2023-11-07T10:57:36.549Z,10.46
2023-11-07T10:58:35.075Z,10.37
2023-11-07T10:59:35.046Z,10.39
2023-11-07T11:00:35.033Z,10.39
2023-11-07T11:01:35.038Z,10.36
2023-11-07T11:02:35.031Z,10.30
2023-11-07T11:03:35.071Z,10.26
2023-11-07T11:04:35.051Z,10.22
2023-11-07T11:05:35.003Z,10.22
2023-11-07T11:06:35.001Z,10.19
2023-11-07T11:07:34.982Z,10.15
2023-11-07T11:08:34.983Z,10.12
2023-11-07T11:09:34.945Z,10.12
2023-11-07T11:10:34.921Z,10.07
2023-11-07T11:11:34.911Z,10.07
2023-11-07T11:12:34.919Z,10.07
2023-11-07T11:13:34.908Z,10.09
2023-11-07T11:14:34.878Z,10.07
2023-11-07T11:15:34.911Z,10.06
2023-11-07T11:16:34.856Z,10.00
2023-11-07T11:17:34.889Z,9.91
2023-11-07T11:18:34.983Z,9.91
2023-11-07T11:19:35.000Z,9.96
2023-11-07T11:20:34.811Z,9.93
2023-11-07T11:21:34.818Z,9.75
2023-11-07T11:22:34.803Z,9.75
2023-11-07T11:23:34.808Z,9.81
2023-11-07T11:24:34.805Z,9.81
2023-11-07T11:25:34.767Z,9.81
2023-11-07T11:26:34.781Z,9.83
2023-11-07T11:27:34.804Z,9.81
2023-11-07T11:28:34.728Z,9.83
2023-11-07T11:29:34.721Z,9.86
2023-11-07T11:30:34.784Z,9.89
2023-11-07T11:31:34.711Z,9.91
2023-11-07T11:32:34.706Z,9.99
2023-11-07T11:33:35.989Z,10.00
2023-11-07T11:34:34.754Z,9.97
2023-11-07T11:35:34.727Z,9.99
2023-11-07T11:36:34.672Z,10.04
2023-11-07T11:37:34.634Z,10.07
2023-11-07T11:38:34.627Z,10.18
2023-11-07T11:39:34.685Z,10.25
2023-11-07T11:40:34.613Z,10.26
2023-11-07T11:41:34.628Z,10.33
2023-11-07T11:42:34.580Z,10.39
2023-11-07T11:43:34.596Z,10.51
2023-11-07T11:44:34.576Z,10.44
2023-11-07T11:45:44.020Z,10.42
2023-11-07T11:46:34.559Z,10.47
2023-11-07T11:47:34.630Z,10.55
2023-11-07T11:48:34.580Z,10.51
2023-11-07T11:49:34.522Z,10.51
2023-11-07T11:50:34.526Z,10.53
2023-11-07T11:51:34.532Z,10.55
2023-11-07T11:52:34.483Z,10.60
2023-11-07T11:53:34.479Z,10.53
2023-11-07T11:54:34.471Z,10.46
2023-11-07T11:55:34.442Z,10.40
2023-11-07T11:56:34.430Z,10.43
2023-11-07T11:57:34.437Z,10.42
2023-11-07T11:58:34.415Z,10.40
2023-11-07T11:59:34.410Z,10.37
2023-11-07T12:00:34.456Z,10.47
2023-11-07T12:01:34.382Z,10.55
2023-11-07T12:02:34.403Z,10.59
2023-11-07T12:03:34.441Z,10.65
2023-11-07T12:04:34.704Z,10.70
2023-11-07T12:05:34.392Z,10.81
2023-11-07T12:06:34.432Z,10.84
2023-11-07T12:07:34.316Z,10.91
2023-11-07T12:08:34.338Z,10.86
2023-11-07T12:09:34.293Z,10.83
2023-11-07T12:10:34.278Z,10.86
2023-11-07T12:11:44.983Z,10.77
2023-11-07T12:12:36.273Z,10.77
2023-11-07T12:13:34.285Z,10.80
2023-11-07T12:14:34.239Z,10.83
2023-11-07T12:15:34.424Z,10.71
2023-11-07T12:16:34.215Z,10.52
2023-11-07T12:17:34.400Z,10.43
2023-11-07T12:18:34.299Z,10.40
2023-11-07T12:19:34.203Z,10.42
2023-11-07T12:20:34.176Z,10.46
2023-11-07T12:21:34.168Z,10.43
2023-11-07T12:22:34.187Z,10.40
2023-11-07T12:23:34.146Z,10.36
2023-11-07T12:24:34.180Z,10.32
2023-11-07T12:25:34.138Z,10.32
2023-11-07T12:26:34.125Z,10.28
2023-11-07T12:27:34.138Z,10.30
2023-11-07T12:28:34.114Z,10.33
2023-11-07T12:29:34.091Z,10.36
2023-11-07T12:30:34.093Z,10.34
2023-11-07T12:31:34.074Z,10.34
2023-11-07T12:32:34.060Z,10.42
2023-11-07T12:33:34.158Z,10.47
2023-11-07T12:34:34.148Z,10.46
2023-11-07T12:35:34.052Z,10.52
2023-11-07T12:36:34.032Z,10.43
2023-11-07T12:37:33.994Z,10.36
2023-11-07T12:38:33.986Z,10.17
2023-11-07T12:39:33.978Z,10.10
2023-11-07T12:40:33.982Z,10.09
2023-11-07T12:41:33.979Z,9.99
2023-11-07T12:42:33.956Z,9.96
2023-11-07T12:43:33.950Z,9.97
2023-11-07T12:44:33.964Z,9.97
2023-11-07T12:45:33.919Z,10.01
2023-11-07T12:46:33.891Z,10.06
2023-11-07T12:47:34.064Z,10.10
2023-11-07T12:48:33.997Z,10.14
2023-11-07T12:49:33.869Z,10.17
2023-11-07T12:50:33.896Z,10.24
2023-11-07T12:51:33.854Z,10.22
2023-11-07T12:52:33.828Z,10.19
2023-11-07T12:53:33.862Z,10.18
2023-11-07T12:54:33.845Z,10.24
2023-11-07T12:55:34.451Z,10.26
2023-11-07T12:56:33.786Z,10.34
2023-11-07T12:57:33.782Z,10.39
2023-11-07T12:58:33.808Z,10.47
2023-11-07T12:59:33.929Z,10.51
2023-11-07T13:00:33.817Z,10.43
2023-11-07T13:01:33.736Z,10.30
2023-11-07T13:02:33.773Z,10.26
2023-11-07T13:03:34.705Z,10.24
2023-11-07T13:04:33.790Z,10.30
2023-11-07T13:05:33.751Z,10.30
2023-11-07T13:06:33.698Z,10.32
2023-11-07T13:07:33.700Z,10.33
2023-11-07T13:08:33.681Z,10.39
2023-11-07T13:09:33.701Z,10.33
2023-11-07T13:10:33.831Z,10.34
2023-11-07T13:11:33.629Z,10.34
2023-11-07T13:12:33.621Z,10.32